SWA46 KDAL-KABQ
Flight info
| Callsign | SWA46 |
|---|---|
| Flight time | N/A |
| Altitude | 34000 |
| Route | KKITY5 HULZE TXO RECKN COLTR4 |
| Aircraft | B38M/M-SDE1FGHILORVWXY/HB1 |
Departure
| Time | 2026-05-04 00:05 |
|---|---|
| Airport | Dallas Love Field (KDAL) |
Arrival
| Time | N/A |
|---|---|
| Airport | Albuquerque International Sunport (KABQ) |
| Time | Latitude | Longitude | Altitude | Speed | Heading |
|---|---|---|---|---|---|
| 2026-05-03 23:52 | 32.84646 | -96.84940 | 485 ft | 0 kts | 181° |
| 2026-05-03 23:54 | 32.84660 | -96.84940 | 481 ft | 2 kts | 181° |
| 2026-05-03 23:54 | 32.84676 | -96.84939 | 480 ft | 2 kts | 181° |
| 2026-05-03 23:54 | 32.84692 | -96.84939 | 479 ft | 2 kts | 181° |
| 2026-05-03 23:54 | 32.84708 | -96.84939 | 475 ft | 2 kts | 181° |
| 2026-05-03 23:55 | 32.84724 | -96.84938 | 475 ft | 2 kts | 181° |
| 2026-05-03 23:55 | 32.84728 | -96.84938 | 480 ft | 0 kts | 181° |
| 2026-05-03 23:59 | 32.84725 | -96.84940 | 475 ft | 1 kts | 203° |
| 2026-05-03 23:59 | 32.84718 | -96.84956 | 475 ft | 4 kts | 246° |
| 2026-05-04 00:00 | 32.84719 | -96.85016 | 482 ft | 12 kts | 272° |
| 2026-05-04 00:00 | 32.84723 | -96.85171 | 478 ft | 25 kts | 270° |
| 2026-05-04 00:00 | 32.84741 | -96.85295 | 476 ft | 8 kts | 329° |
| 2026-05-04 00:00 | 32.84813 | -96.85308 | 481 ft | 10 kts | 0° |
| 2026-05-04 00:01 | 32.84849 | -96.85332 | 481 ft | 8 kts | 316° |
| 2026-05-04 00:01 | 32.84876 | -96.85388 | 481 ft | 0 kts | 300° |
| 2026-05-04 00:01 | 32.84875 | -96.85405 | 478 ft | 6 kts | 259° |
| 2026-05-04 00:01 | 32.84820 | -96.85434 | 477 ft | 14 kts | 190° |
| 2026-05-04 00:02 | 32.84686 | -96.85460 | 483 ft | 20 kts | 188° |
| 2026-05-04 00:02 | 32.84645 | -96.85474 | 482 ft | 2 kts | 230° |
| 2026-05-04 00:02 | 32.84644 | -96.85531 | 479 ft | 8 kts | 283° |
| 2026-05-04 00:02 | 32.84696 | -96.85585 | 485 ft | 16 kts | 321° |
| 2026-05-04 00:03 | 32.84805 | -96.85710 | 485 ft | 28 kts | 318° |
| 2026-05-04 00:03 | 32.84960 | -96.85889 | 485 ft | 30 kts | 314° |
| 2026-05-04 00:03 | 32.85097 | -96.86052 | 484 ft | 24 kts | 316° |
| 2026-05-04 00:03 | 32.85179 | -96.86147 | 484 ft | 13 kts | 316° |
| 2026-05-04 00:04 | 32.85217 | -96.86203 | 478 ft | 3 kts | 257° |
| 2026-05-04 00:04 | 32.85206 | -96.86235 | 478 ft | 5 kts | 239° |
| 2026-05-04 00:04 | 32.85180 | -96.86268 | 475 ft | 7 kts | 223° |
| 2026-05-04 00:04 | 32.85137 | -96.86305 | 478 ft | 8 kts | 201° |
| 2026-05-04 00:05 | 32.85092 | -96.86292 | 482 ft | 7 kts | 144° |
| 2026-05-04 00:05 | 32.84943 | -96.86130 | 483 ft | 74 kts | 136° |
| 2026-05-04 00:05 | 32.84358 | -96.85440 | 657 ft | 145 kts | 137° |
| 2026-05-04 00:05 | 32.83717 | -96.84553 | 1851 ft | 129 kts | 130° |
| 2026-05-04 00:06 | 32.83174 | -96.83798 | 2850 ft | 117 kts | 148° |
| 2026-05-04 00:06 | 32.82534 | -96.83098 | 3344 ft | 133 kts | 143° |
| 2026-05-04 00:06 | 32.81854 | -96.82306 | 3783 ft | 155 kts | 140° |
| 2026-05-04 00:06 | 32.81057 | -96.81339 | 4519 ft | 169 kts | 139° |
| 2026-05-04 00:07 | 32.80197 | -96.80285 | 5240 ft | 187 kts | 139° |
| 2026-05-04 00:07 | 32.79240 | -96.79113 | 5865 ft | 212 kts | 139° |
| 2026-05-04 00:07 | 32.78101 | -96.77724 | 6077 ft | 260 kts | 138° |
| 2026-05-04 00:07 | 32.76715 | -96.76027 | 6093 ft | 312 kts | 137° |
| 2026-05-04 00:08 | 32.75059 | -96.74126 | 6677 ft | 324 kts | 139° |
| 2026-05-04 00:08 | 32.73450 | -96.72427 | 8949 ft | 295 kts | 146° |
| 2026-05-04 00:08 | 32.71657 | -96.71342 | 10483 ft | 290 kts | 165° |
| 2026-05-04 00:08 | 32.69654 | -96.71045 | 11309 ft | 302 kts | 186° |
| 2026-05-04 00:09 | 32.67572 | -96.71607 | 12011 ft | 317 kts | 203° |
| 2026-05-04 00:09 | 32.65495 | -96.72708 | 12669 ft | 336 kts | 206° |
| 2026-05-04 00:09 | 32.63537 | -96.74242 | 13619 ft | 342 kts | 225° |
| 2026-05-04 00:09 | 32.62138 | -96.76529 | 14550 ft | 347 kts | 245° |
| 2026-05-04 00:10 | 32.61518 | -96.79307 | 15494 ft | 352 kts | 266° |
| 2026-05-04 00:10 | 32.61458 | -96.82232 | 16461 ft | 357 kts | 271° |
| 2026-05-04 00:10 | 32.61513 | -96.85201 | 17419 ft | 363 kts | 272° |
| 2026-05-04 00:10 | 32.61561 | -96.88214 | 18385 ft | 368 kts | 272° |
| 2026-05-04 00:11 | 32.61561 | -96.91266 | 19257 ft | 372 kts | 271° |
| 2026-05-04 00:11 | 32.61553 | -96.94350 | 20166 ft | 375 kts | 271° |
| 2026-05-04 00:11 | 32.61566 | -96.97407 | 21114 ft | 377 kts | 272° |
| 2026-05-04 00:11 | 32.61585 | -97.00522 | 22023 ft | 379 kts | 272° |
| 2026-05-04 00:12 | 32.61595 | -97.03660 | 22935 ft | 382 kts | 272° |
| 2026-05-04 00:12 | 32.61600 | -97.06821 | 23811 ft | 384 kts | 272° |
| 2026-05-04 00:12 | 32.61606 | -97.09995 | 24580 ft | 386 kts | 272° |
| 2026-05-04 00:12 | 32.61615 | -97.13186 | 25371 ft | 387 kts | 273° |
| 2026-05-04 00:13 | 32.61622 | -97.16383 | 26168 ft | 388 kts | 273° |
| 2026-05-04 00:13 | 32.61626 | -97.19575 | 27162 ft | 383 kts | 274° |
| 2026-05-04 00:13 | 32.61628 | -97.22690 | 28383 ft | 373 kts | 274° |
| 2026-05-04 00:13 | 32.61634 | -97.25696 | 29546 ft | 364 kts | 275° |
| 2026-05-04 00:14 | 32.61848 | -97.28642 | 30583 ft | 353 kts | 282° |
| 2026-05-04 00:14 | 32.62374 | -97.31447 | 31476 ft | 345 kts | 288° |
| 2026-05-04 00:14 | 32.63179 | -97.34090 | 32332 ft | 338 kts | 294° |
| 2026-05-04 00:14 | 32.64238 | -97.36554 | 33152 ft | 333 kts | 299° |
| 2026-05-04 00:15 | 32.65534 | -97.38830 | 33844 ft | 334 kts | 304° |
| 2026-05-04 00:15 | 32.67012 | -97.40998 | 34051 ft | 344 kts | 305° |
| 2026-05-04 00:15 | 32.68546 | -97.43253 | 34063 ft | 359 kts | 306° |
| 2026-05-04 00:15 | 32.70148 | -97.45615 | 34065 ft | 374 kts | 306° |
| 2026-05-04 00:16 | 32.71818 | -97.48069 | 34071 ft | 389 kts | 306° |
| 2026-05-04 00:16 | 32.73530 | -97.50580 | 34086 ft | 404 kts | 306° |
| 2026-05-04 00:16 | 32.77078 | -97.55797 | 34116 ft | 406 kts | 306° |
| 2026-05-04 00:17 | 32.80620 | -97.61022 | 34129 ft | 406 kts | 306° |
| 2026-05-04 00:17 | 32.84166 | -97.66254 | 34164 ft | 406 kts | 306° |
| 2026-05-04 00:18 | 32.85912 | -97.68830 | 34152 ft | 391 kts | 306° |
| 2026-05-04 00:18 | 32.87525 | -97.71272 | 34156 ft | 369 kts | 302° |
| 2026-05-04 00:18 | 32.89968 | -97.76455 | 34158 ft | 356 kts | 292° |
| 2026-05-04 00:19 | 32.91763 | -97.81907 | 34176 ft | 353 kts | 292° |
| 2026-05-04 00:19 | 32.93529 | -97.87264 | 34137 ft | 352 kts | 291° |
| 2026-05-04 00:20 | 32.95292 | -97.92664 | 34111 ft | 353 kts | 291° |
| 2026-05-04 00:20 | 32.97071 | -97.98102 | 34025 ft | 352 kts | 291° |
| 2026-05-04 00:21 | 32.98847 | -98.03547 | 34030 ft | 352 kts | 291° |
| 2026-05-04 00:21 | 33.00619 | -98.08988 | 34024 ft | 353 kts | 291° |
| 2026-05-04 00:22 | 33.02378 | -98.14400 | 34021 ft | 353 kts | 291° |
| 2026-05-04 00:22 | 33.04147 | -98.19850 | 34017 ft | 353 kts | 291° |
| 2026-05-04 00:23 | 33.05917 | -98.25307 | 34008 ft | 353 kts | 291° |
| 2026-05-04 00:23 | 33.07697 | -98.30759 | 34010 ft | 353 kts | 291° |
| 2026-05-04 00:24 | 33.09459 | -98.36182 | 34013 ft | 354 kts | 291° |
| 2026-05-04 00:24 | 33.11238 | -98.41663 | 34008 ft | 354 kts | 291° |
| 2026-05-04 00:25 | 33.13012 | -98.47137 | 34026 ft | 354 kts | 291° |
| 2026-05-04 00:25 | 33.14786 | -98.52622 | 34026 ft | 354 kts | 291° |
| 2026-05-04 00:26 | 33.16558 | -98.58110 | 34026 ft | 354 kts | 291° |
| 2026-05-04 00:26 | 33.18314 | -98.63560 | 34024 ft | 354 kts | 291° |
| 2026-05-04 00:27 | 33.20081 | -98.69050 | 34020 ft | 354 kts | 291° |
| 2026-05-04 00:27 | 33.21846 | -98.74546 | 34016 ft | 356 kts | 290° |
| 2026-05-04 00:28 | 33.23611 | -98.80051 | 34003 ft | 355 kts | 290° |
| 2026-05-04 00:28 | 33.25373 | -98.85559 | 33999 ft | 355 kts | 290° |
| 2026-05-04 00:29 | 33.27123 | -98.91035 | 33997 ft | 355 kts | 290° |
| 2026-05-04 00:29 | 33.28882 | -98.96551 | 33992 ft | 355 kts | 290° |
| 2026-05-04 00:30 | 33.30637 | -99.02065 | 33990 ft | 355 kts | 290° |
| 2026-05-04 00:30 | 33.32391 | -99.07585 | 33996 ft | 355 kts | 290° |
| 2026-05-04 00:31 | 33.34145 | -99.13116 | 33993 ft | 356 kts | 290° |
| 2026-05-04 00:31 | 33.35890 | -99.18626 | 33997 ft | 357 kts | 290° |
| 2026-05-04 00:32 | 33.37645 | -99.24181 | 33981 ft | 357 kts | 290° |
| 2026-05-04 00:32 | 33.39399 | -99.29745 | 33928 ft | 359 kts | 290° |
| 2026-05-04 00:33 | 33.42033 | -99.38118 | 33984 ft | 359 kts | 290° |
| 2026-05-04 00:34 | 33.43784 | -99.43696 | 34040 ft | 358 kts | 290° |
| 2026-05-04 00:34 | 33.45540 | -99.49289 | 33966 ft | 360 kts | 290° |
| 2026-05-04 00:35 | 33.47315 | -99.54914 | 33969 ft | 361 kts | 290° |
| 2026-05-04 00:35 | 33.49096 | -99.60514 | 34072 ft | 359 kts | 290° |
| 2026-05-04 00:36 | 33.50872 | -99.66068 | 34053 ft | 360 kts | 290° |
| 2026-05-04 00:36 | 33.52681 | -99.71686 | 34016 ft | 362 kts | 290° |
| 2026-05-04 00:37 | 33.54501 | -99.77291 | 34128 ft | 360 kts | 290° |
| 2026-05-04 00:37 | 33.56325 | -99.82863 | 34190 ft | 360 kts | 291° |
| 2026-05-04 00:38 | 33.58167 | -99.88475 | 34015 ft | 364 kts | 289° |
| 2026-05-04 00:38 | 33.59106 | -99.94403 | 33975 ft | 366 kts | 278° |
| 2026-05-04 00:39 | 33.59843 | -100.00440 | 33969 ft | 366 kts | 282° |
| 2026-05-04 00:39 | 33.61364 | -100.06256 | 33966 ft | 366 kts | 290° |
| 2026-05-04 00:40 | 33.63028 | -100.12034 | 33968 ft | 367 kts | 287° |
| 2026-05-04 00:40 | 33.64576 | -100.17870 | 33962 ft | 367 kts | 288° |
| 2026-05-04 00:41 | 33.66189 | -100.23426 | 33953 ft | 368 kts | 291° |
| 2026-05-04 00:41 | 33.68090 | -100.29137 | 33953 ft | 368 kts | 290° |
| 2026-05-04 00:42 | 33.69990 | -100.34850 | 33951 ft | 369 kts | 290° |
| 2026-05-04 00:42 | 33.71881 | -100.40540 | 33952 ft | 369 kts | 290° |
| 2026-05-04 00:43 | 33.73780 | -100.46273 | 33951 ft | 370 kts | 290° |
| 2026-05-04 00:43 | 33.75680 | -100.52013 | 33952 ft | 370 kts | 290° |
| 2026-05-04 00:44 | 33.77581 | -100.57771 | 33939 ft | 371 kts | 290° |
| 2026-05-04 00:44 | 33.79471 | -100.63505 | 33941 ft | 371 kts | 290° |
| 2026-05-04 00:45 | 33.81370 | -100.69277 | 33943 ft | 372 kts | 290° |
| 2026-05-04 00:45 | 33.83268 | -100.75057 | 33943 ft | 372 kts | 290° |
| 2026-05-04 00:46 | 33.85167 | -100.80849 | 33935 ft | 372 kts | 290° |
| 2026-05-04 00:46 | 33.87063 | -100.86643 | 33935 ft | 372 kts | 290° |
| 2026-05-04 00:47 | 33.88942 | -100.92397 | 33935 ft | 372 kts | 290° |
| 2026-05-04 00:47 | 33.90832 | -100.98197 | 33935 ft | 372 kts | 290° |
| 2026-05-04 00:48 | 33.92719 | -101.03998 | 33932 ft | 372 kts | 290° |
| 2026-05-04 00:48 | 33.94605 | -101.09804 | 33933 ft | 372 kts | 290° |
| 2026-05-04 00:49 | 33.96489 | -101.15616 | 33936 ft | 372 kts | 290° |
| 2026-05-04 00:49 | 33.98325 | -101.21292 | 33938 ft | 373 kts | 290° |
| 2026-05-04 00:50 | 34.00194 | -101.27080 | 33935 ft | 373 kts | 290° |
| 2026-05-04 00:50 | 34.02074 | -101.32911 | 33926 ft | 373 kts | 290° |
| 2026-05-04 00:51 | 34.03949 | -101.38745 | 33940 ft | 373 kts | 290° |
| 2026-05-04 00:51 | 34.05810 | -101.44539 | 33956 ft | 373 kts | 290° |
| 2026-05-04 00:52 | 34.07683 | -101.50383 | 33971 ft | 373 kts | 290° |
| 2026-05-04 00:52 | 34.09552 | -101.56228 | 33986 ft | 374 kts | 290° |
| 2026-05-04 00:53 | 34.11420 | -101.62078 | 34003 ft | 374 kts | 290° |
| 2026-05-04 00:53 | 34.13287 | -101.67939 | 33996 ft | 374 kts | 289° |
| 2026-05-04 00:54 | 34.15140 | -101.73764 | 34009 ft | 374 kts | 289° |
| 2026-05-04 00:54 | 34.17001 | -101.79630 | 34013 ft | 375 kts | 289° |
| 2026-05-04 00:55 | 34.18865 | -101.85513 | 34005 ft | 375 kts | 289° |
| 2026-05-04 00:55 | 34.20726 | -101.91400 | 33989 ft | 375 kts | 289° |
| 2026-05-04 00:56 | 34.22584 | -101.97291 | 33971 ft | 375 kts | 289° |
| 2026-05-04 00:56 | 34.24431 | -102.03153 | 33952 ft | 376 kts | 289° |
| 2026-05-04 00:57 | 34.26286 | -102.09055 | 33932 ft | 376 kts | 289° |
| 2026-05-04 00:57 | 34.28139 | -102.14965 | 33921 ft | 376 kts | 289° |
| 2026-05-04 00:58 | 34.29993 | -102.20886 | 33925 ft | 377 kts | 289° |
| 2026-05-04 00:58 | 34.31845 | -102.26812 | 33927 ft | 377 kts | 289° |
| 2026-05-04 00:59 | 34.33695 | -102.32746 | 33926 ft | 377 kts | 289° |
| 2026-05-04 00:59 | 34.35544 | -102.38686 | 33937 ft | 377 kts | 289° |
| 2026-05-04 01:00 | 34.37380 | -102.44600 | 33938 ft | 378 kts | 289° |
| 2026-05-04 01:00 | 34.39226 | -102.50555 | 33945 ft | 378 kts | 289° |
| 2026-05-04 01:01 | 34.41073 | -102.56525 | 33944 ft | 378 kts | 289° |
| 2026-05-04 01:01 | 34.42916 | -102.62494 | 33943 ft | 379 kts | 289° |
| 2026-05-04 01:02 | 34.44758 | -102.68474 | 33962 ft | 379 kts | 289° |
| 2026-05-04 01:02 | 34.46597 | -102.74454 | 33953 ft | 379 kts | 289° |
| 2026-05-04 01:03 | 34.48421 | -102.80397 | 33951 ft | 379 kts | 289° |
| 2026-05-04 01:03 | 34.49824 | -102.86516 | 33958 ft | 377 kts | 281° |
| 2026-05-04 01:04 | 34.50906 | -102.92737 | 33975 ft | 377 kts | 281° |
| 2026-05-04 01:04 | 34.51826 | -102.99003 | 33975 ft | 378 kts | 280° |
| 2026-05-04 01:05 | 34.52803 | -103.05262 | 33974 ft | 378 kts | 281° |
| 2026-05-04 01:05 | 34.53752 | -103.11487 | 34002 ft | 378 kts | 281° |
| 2026-05-04 01:06 | 34.54710 | -103.17766 | 33947 ft | 379 kts | 281° |
| 2026-05-04 01:06 | 34.55666 | -103.24053 | 33923 ft | 379 kts | 281° |
| 2026-05-04 01:07 | 34.56618 | -103.30339 | 33923 ft | 379 kts | 281° |
| 2026-05-04 01:07 | 34.57568 | -103.36634 | 33890 ft | 379 kts | 281° |
| 2026-05-04 01:08 | 34.58508 | -103.42885 | 33891 ft | 379 kts | 281° |
| 2026-05-04 01:08 | 34.59452 | -103.49185 | 33897 ft | 379 kts | 281° |
| 2026-05-04 01:09 | 34.60391 | -103.55481 | 33874 ft | 379 kts | 280° |
| 2026-05-04 01:09 | 34.61328 | -103.61781 | 33870 ft | 379 kts | 280° |
| 2026-05-04 01:10 | 34.61666 | -103.68114 | 33891 ft | 385 kts | 258° |
| 2026-05-04 01:10 | 34.60411 | -103.71029 | 33897 ft | 402 kts | 236° |
| 2026-05-04 01:10 | 34.58210 | -103.73174 | 33897 ft | 427 kts | 216° |
| 2026-05-04 01:10 | 34.55292 | -103.74231 | 33899 ft | 455 kts | 194° |
| 2026-05-04 01:11 | 34.52048 | -103.73939 | 33899 ft | 483 kts | 173° |
| 2026-05-04 01:11 | 34.48921 | -103.72250 | 33899 ft | 506 kts | 152° |
| 2026-05-04 01:11 | 34.46313 | -103.69307 | 33886 ft | 523 kts | 131° |
| 2026-05-04 01:11 | 34.44562 | -103.65425 | 33940 ft | 532 kts | 110° |
| 2026-05-04 01:12 | 34.43885 | -103.61035 | 33965 ft | 532 kts | 88° |
| 2026-05-04 01:12 | 34.44366 | -103.56641 | 33984 ft | 523 kts | 67° |
| 2026-05-04 01:12 | 34.45902 | -103.52793 | 33914 ft | 506 kts | 46° |
| 2026-05-04 01:12 | 34.48345 | -103.49805 | 33916 ft | 482 kts | 25° |
| 2026-05-04 01:13 | 34.51228 | -103.48135 | 33961 ft | 454 kts | 4° |
| 2026-05-04 01:13 | 34.54257 | -103.47828 | 33946 ft | 426 kts | 343° |
| 2026-05-04 01:13 | 34.56973 | -103.48872 | 33946 ft | 400 kts | 322° |
| 2026-05-04 01:13 | 34.59136 | -103.50894 | 33906 ft | 388 kts | 309° |
| 2026-05-04 01:14 | 34.60867 | -103.53368 | 33894 ft | 382 kts | 299° |
| 2026-05-04 01:14 | 34.61915 | -103.56275 | 33910 ft | 376 kts | 284° |
| 2026-05-04 01:14 | 34.62630 | -103.59328 | 33891 ft | 376 kts | 284° |
| 2026-05-04 01:15 | 34.63839 | -103.65502 | 33871 ft | 376 kts | 277° |
| 2026-05-04 01:15 | 34.64140 | -103.71813 | 33866 ft | 377 kts | 274° |
| 2026-05-04 01:16 | 34.64826 | -103.78110 | 33870 ft | 376 kts | 281° |
| 2026-05-04 01:16 | 34.65655 | -103.84392 | 33863 ft | 377 kts | 278° |
| 2026-05-04 01:17 | 34.66379 | -103.90690 | 33852 ft | 377 kts | 278° |
| 2026-05-04 01:17 | 34.67158 | -103.96951 | 33843 ft | 378 kts | 278° |
| 2026-05-04 01:18 | 34.67906 | -104.03269 | 33840 ft | 378 kts | 278° |
| 2026-05-04 01:18 | 34.68668 | -104.09600 | 33852 ft | 380 kts | 278° |
| 2026-05-04 01:19 | 34.69423 | -104.15957 | 33851 ft | 380 kts | 278° |
| 2026-05-04 01:19 | 34.70179 | -104.22323 | 33856 ft | 379 kts | 278° |
| 2026-05-04 01:20 | 34.70903 | -104.28458 | 33821 ft | 360 kts | 278° |
| 2026-05-04 01:20 | 34.71595 | -104.34342 | 33847 ft | 348 kts | 278° |
| 2026-05-04 01:21 | 34.72278 | -104.40182 | 33879 ft | 350 kts | 278° |
| 2026-05-04 01:21 | 34.72964 | -104.46065 | 33893 ft | 352 kts | 278° |
| 2026-05-04 01:22 | 34.73651 | -104.51985 | 33917 ft | 354 kts | 278° |
| 2026-05-04 01:22 | 34.74333 | -104.57890 | 33929 ft | 356 kts | 278° |
| 2026-05-04 01:23 | 34.75022 | -104.63876 | 33941 ft | 358 kts | 278° |
| 2026-05-04 01:23 | 34.75709 | -104.69876 | 33948 ft | 359 kts | 278° |
| 2026-05-04 01:24 | 34.76280 | -104.74883 | 33939 ft | 359 kts | 278° |
| 2026-05-04 01:24 | 34.76625 | -104.77912 | 33569 ft | 366 kts | 278° |
| 2026-05-04 01:24 | 34.77093 | -104.82040 | 32957 ft | 378 kts | 278° |
| 2026-05-04 01:24 | 34.77455 | -104.85242 | 32497 ft | 387 kts | 278° |
| 2026-05-04 01:25 | 34.77704 | -104.87449 | 32180 ft | 393 kts | 278° |
| 2026-05-04 01:25 | 34.78079 | -104.90773 | 31699 ft | 401 kts | 278° |
| 2026-05-04 01:25 | 34.78461 | -104.94170 | 31221 ft | 410 kts | 278° |
| 2026-05-04 01:25 | 34.78845 | -104.97601 | 30730 ft | 419 kts | 278° |
| 2026-05-04 01:26 | 34.79231 | -105.01057 | 30223 ft | 428 kts | 278° |
| 2026-05-04 01:26 | 34.79626 | -105.04599 | 29670 ft | 413 kts | 278° |
| 2026-05-04 01:26 | 34.80001 | -105.07972 | 29209 ft | 391 kts | 278° |
| 2026-05-04 01:26 | 34.80352 | -105.11132 | 28751 ft | 363 kts | 278° |
| 2026-05-04 01:27 | 34.80677 | -105.14073 | 28313 ft | 336 kts | 278° |
| 2026-05-04 01:27 | 34.80972 | -105.16748 | 27926 ft | 303 kts | 278° |
| 2026-05-04 01:27 | 34.81240 | -105.19181 | 27591 ft | 280 kts | 278° |
| 2026-05-04 01:27 | 34.81491 | -105.21465 | 27268 ft | 266 kts | 278° |
| 2026-05-04 01:28 | 34.81731 | -105.23649 | 26990 ft | 255 kts | 278° |
| 2026-05-04 01:28 | 34.81961 | -105.25753 | 26697 ft | 247 kts | 278° |
| 2026-05-04 01:28 | 34.82184 | -105.27789 | 26407 ft | 239 kts | 278° |
| 2026-05-04 01:28 | 34.82403 | -105.29787 | 26141 ft | 238 kts | 278° |
| 2026-05-04 01:29 | 34.82618 | -105.31760 | 25864 ft | 239 kts | 278° |
| 2026-05-04 01:29 | 34.82837 | -105.33768 | 25597 ft | 240 kts | 278° |
| 2026-05-04 01:29 | 34.83056 | -105.35778 | 25319 ft | 239 kts | 278° |
| 2026-05-04 01:29 | 34.83273 | -105.37785 | 25064 ft | 239 kts | 278° |
| 2026-05-04 01:30 | 34.83492 | -105.39796 | 24784 ft | 240 kts | 278° |
| 2026-05-04 01:30 | 34.83710 | -105.41810 | 24504 ft | 240 kts | 278° |
| 2026-05-04 01:30 | 34.83913 | -105.43694 | 24240 ft | 242 kts | 278° |
| 2026-05-04 01:30 | 34.84132 | -105.45725 | 23954 ft | 243 kts | 278° |
| 2026-05-04 01:31 | 34.84353 | -105.47767 | 23680 ft | 244 kts | 278° |
| 2026-05-04 01:31 | 34.84570 | -105.49790 | 23377 ft | 245 kts | 278° |
| 2026-05-04 01:31 | 34.84791 | -105.51844 | 23093 ft | 245 kts | 278° |
| 2026-05-04 01:31 | 34.85011 | -105.53899 | 22798 ft | 245 kts | 278° |
| 2026-05-04 01:32 | 34.85231 | -105.55952 | 22514 ft | 244 kts | 278° |
| 2026-05-04 01:32 | 34.85450 | -105.58000 | 22230 ft | 244 kts | 278° |
| 2026-05-04 01:32 | 34.85669 | -105.60050 | 21945 ft | 244 kts | 278° |
| 2026-05-04 01:32 | 34.85887 | -105.62099 | 21662 ft | 244 kts | 278° |
| 2026-05-04 01:33 | 34.86105 | -105.64149 | 21376 ft | 244 kts | 278° |
| 2026-05-04 01:33 | 34.86322 | -105.66196 | 21108 ft | 244 kts | 277° |
| 2026-05-04 01:33 | 34.86540 | -105.68249 | 20828 ft | 245 kts | 277° |
| 2026-05-04 01:33 | 34.86755 | -105.70279 | 20547 ft | 246 kts | 277° |
| 2026-05-04 01:34 | 34.86973 | -105.72342 | 20266 ft | 246 kts | 277° |
| 2026-05-04 01:34 | 34.87192 | -105.74416 | 19982 ft | 247 kts | 277° |
| 2026-05-04 01:34 | 34.87411 | -105.76495 | 19702 ft | 248 kts | 277° |
| 2026-05-04 01:34 | 34.87630 | -105.78583 | 19407 ft | 249 kts | 277° |
| 2026-05-04 01:35 | 34.87850 | -105.80678 | 19121 ft | 250 kts | 277° |
| 2026-05-04 01:35 | 34.88071 | -105.82784 | 18833 ft | 251 kts | 277° |
| 2026-05-04 01:35 | 34.88292 | -105.84901 | 18544 ft | 252 kts | 277° |
| 2026-05-04 01:35 | 34.88514 | -105.87025 | 18249 ft | 253 kts | 277° |
| 2026-05-04 01:36 | 34.88736 | -105.89157 | 17930 ft | 253 kts | 277° |
| 2026-05-04 01:36 | 34.88958 | -105.91283 | 17636 ft | 253 kts | 277° |
| 2026-05-04 01:36 | 34.89175 | -105.93379 | 17343 ft | 253 kts | 277° |
| 2026-05-04 01:36 | 34.89396 | -105.95501 | 17049 ft | 252 kts | 277° |
| 2026-05-04 01:37 | 34.89614 | -105.97614 | 16761 ft | 252 kts | 277° |
| 2026-05-04 01:37 | 34.89833 | -105.99730 | 16472 ft | 251 kts | 277° |
| 2026-05-04 01:37 | 34.90051 | -106.01838 | 16187 ft | 251 kts | 276° |
| 2026-05-04 01:37 | 34.90268 | -106.03948 | 15896 ft | 251 kts | 277° |
| 2026-05-04 01:38 | 34.90483 | -106.06040 | 15614 ft | 247 kts | 277° |
| 2026-05-04 01:38 | 34.90694 | -106.08097 | 15329 ft | 243 kts | 277° |
| 2026-05-04 01:38 | 34.90902 | -106.10120 | 15057 ft | 239 kts | 277° |
| 2026-05-04 01:38 | 34.91106 | -106.12119 | 14784 ft | 236 kts | 277° |
| 2026-05-04 01:39 | 34.91307 | -106.14092 | 14516 ft | 233 kts | 277° |
| 2026-05-04 01:39 | 34.91503 | -106.16013 | 14256 ft | 231 kts | 277° |
| 2026-05-04 01:39 | 34.91700 | -106.17942 | 13998 ft | 228 kts | 277° |
| 2026-05-04 01:39 | 34.91893 | -106.19845 | 13741 ft | 225 kts | 277° |
| 2026-05-04 01:40 | 34.92084 | -106.21726 | 13464 ft | 223 kts | 277° |
| 2026-05-04 01:40 | 34.92273 | -106.23585 | 13210 ft | 219 kts | 277° |
| 2026-05-04 01:40 | 34.92454 | -106.25376 | 12971 ft | 216 kts | 277° |
| 2026-05-04 01:40 | 34.92637 | -106.27183 | 12745 ft | 213 kts | 277° |
| 2026-05-04 01:41 | 34.92816 | -106.28959 | 12503 ft | 211 kts | 277° |
| 2026-05-04 01:41 | 34.92994 | -106.30724 | 12274 ft | 209 kts | 276° |
| 2026-05-04 01:41 | 34.93170 | -106.32471 | 12049 ft | 207 kts | 276° |
| 2026-05-04 01:41 | 34.93343 | -106.34193 | 11829 ft | 207 kts | 276° |
| 2026-05-04 01:42 | 34.93518 | -106.35939 | 11604 ft | 207 kts | 275° |
| 2026-05-04 01:42 | 34.93693 | -106.37693 | 11373 ft | 209 kts | 275° |
| 2026-05-04 01:42 | 34.93869 | -106.39448 | 11139 ft | 208 kts | 275° |
| 2026-05-04 01:42 | 34.94045 | -106.41215 | 10876 ft | 211 kts | 274° |
| 2026-05-04 01:43 | 34.94220 | -106.42978 | 10687 ft | 207 kts | 274° |
| 2026-05-04 01:43 | 34.94395 | -106.44728 | 10623 ft | 210 kts | 275° |
| 2026-05-04 01:43 | 34.94570 | -106.46491 | 10535 ft | 208 kts | 275° |
| 2026-05-04 01:43 | 34.94744 | -106.48240 | 10442 ft | 208 kts | 275° |
| 2026-05-04 01:44 | 34.94917 | -106.49979 | 10349 ft | 206 kts | 274° |
| 2026-05-04 01:44 | 34.95085 | -106.51686 | 10255 ft | 206 kts | 274° |
| 2026-05-04 01:44 | 34.95256 | -106.53419 | 10164 ft | 206 kts | 274° |
| 2026-05-04 01:44 | 34.95421 | -106.55149 | 10069 ft | 205 kts | 271° |
| 2026-05-04 01:45 | 34.95370 | -106.56887 | 9921 ft | 206 kts | 265° |
| 2026-05-04 01:45 | 34.95285 | -106.58628 | 9691 ft | 206 kts | 264° |
| 2026-05-04 01:45 | 34.95133 | -106.62082 | 9268 ft | 202 kts | 264° |
| 2026-05-04 01:46 | 34.95058 | -106.63792 | 9084 ft | 202 kts | 264° |
| 2026-05-04 01:46 | 34.94981 | -106.65508 | 8888 ft | 204 kts | 264° |
| 2026-05-04 01:46 | 34.94905 | -106.67239 | 8693 ft | 204 kts | 264° |
| 2026-05-04 01:46 | 34.94983 | -106.68972 | 8501 ft | 208 kts | 278° |
| 2026-05-04 01:47 | 34.95481 | -106.70614 | 8320 ft | 212 kts | 296° |
| 2026-05-04 01:47 | 34.96390 | -106.72045 | 8125 ft | 216 kts | 314° |
| 2026-05-04 01:47 | 34.97639 | -106.73082 | 7934 ft | 220 kts | 332° |
| 2026-05-04 01:47 | 34.99117 | -106.73598 | 7729 ft | 224 kts | 350° |
| 2026-05-04 01:48 | 35.00680 | -106.73521 | 7495 ft | 229 kts | 9° |
| 2026-05-04 01:48 | 35.02171 | -106.72800 | 7228 ft | 233 kts | 30° |
| 2026-05-04 01:48 | 35.03395 | -106.71500 | 6959 ft | 234 kts | 52° |
| 2026-05-04 01:48 | 35.04184 | -106.69801 | 6679 ft | 226 kts | 72° |
| 2026-05-04 01:49 | 35.04470 | -106.68059 | 6451 ft | 191 kts | 93° |
| 2026-05-04 01:49 | 35.04464 | -106.66550 | 6152 ft | 169 kts | 97° |
| 2026-05-04 01:49 | 35.04453 | -106.65101 | 5921 ft | 171 kts | 96° |
| 2026-05-04 01:49 | 35.04447 | -106.63676 | 5687 ft | 171 kts | 96° |
| 2026-05-04 01:50 | 35.04438 | -106.62151 | 5454 ft | 179 kts | 96° |
| 2026-05-04 01:50 | 35.04484 | -106.60675 | 5388 ft | 164 kts | 96° |
| 2026-05-04 01:50 | 35.04371 | -106.59473 | 5324 ft | 113 kts | 104° |
| 2026-05-04 01:50 | 35.04195 | -106.58802 | 5338 ft | 54 kts | 113° |